createdAt,value
2023-05-10T00:01:36.776Z,11.60
2023-05-10T00:04:04.427Z,9.40
2023-05-10T00:06:32.094Z,9.30
2023-05-10T00:08:59.016Z,10.20
2023-05-10T00:11:25.773Z,13.50
2023-05-10T00:13:52.701Z,13.20
2023-05-10T00:16:19.510Z,19.30
2023-05-10T00:18:46.446Z,18.10
2023-05-10T00:21:13.194Z,16.10
2023-05-10T00:23:40.193Z,16.80
2023-05-10T00:26:06.980Z,18.80
2023-05-10T00:28:33.802Z,17.80
2023-05-10T00:31:00.567Z,23.30
2023-05-10T00:33:27.566Z,24.20
2023-05-10T00:35:54.392Z,22.80
2023-05-10T00:38:21.804Z,20.50
2023-05-10T00:40:48.597Z,23.70
2023-05-10T00:43:21.584Z,21.60
2023-05-10T00:45:48.676Z,21.80
2023-05-10T00:48:15.588Z,21.50
2023-05-10T00:50:42.595Z,20.60
2023-05-10T00:53:09.619Z,25.60
2023-05-10T00:55:36.988Z,21.20
2023-05-10T00:58:04.809Z,20.40
2023-05-10T01:00:33.315Z,16.10
2023-05-10T01:03:01.063Z,15.80
2023-05-10T01:05:28.180Z,14.10
2023-05-10T01:07:55.657Z,17.00
2023-05-10T01:10:22.718Z,13.20
2023-05-10T01:12:49.657Z,17.00
2023-05-10T01:15:16.535Z,14.50
2023-05-10T01:17:45.846Z,13.70
2023-05-10T01:20:13.128Z,13.40
2023-05-10T01:23:08.540Z,13.10
2023-05-10T01:25:52.801Z,14.00
2023-05-10T01:28:45.124Z,13.30
2023-05-10T01:31:30.839Z,11.50
2023-05-10T01:34:13.610Z,10.80
2023-05-10T01:36:51.279Z,11.20
2023-05-10T01:39:23.083Z,9.20
2023-05-10T01:42:00.147Z,8.80
2023-05-10T01:44:30.319Z,8.70
2023-05-10T01:47:10.168Z,11.40
2023-05-10T01:49:57.263Z,10.50
2023-05-10T01:52:27.506Z,13.50
2023-05-10T01:55:01.845Z,12.20
2023-05-10T01:57:35.618Z,16.10
2023-05-10T02:00:06.791Z,12.20
2023-05-10T02:02:45.184Z,12.80
2023-05-10T02:05:13.804Z,12.60
2023-05-10T02:07:41.051Z,13.10
2023-05-10T02:10:08.963Z,16.60
2023-05-10T02:12:36.871Z,13.30
2023-05-10T02:15:05.993Z,14.40
2023-05-10T02:17:33.325Z,14.90
2023-05-10T02:20:00.512Z,13.80
2023-05-10T02:22:27.955Z,15.70
2023-05-10T02:24:56.240Z,14.00
2023-05-10T02:27:23.799Z,17.20
2023-05-10T02:29:50.708Z,15.90
2023-05-10T02:32:18.534Z,14.50
2023-05-10T02:34:46.030Z,16.30
2023-05-10T02:37:15.135Z,15.60
2023-05-10T02:39:44.476Z,14.60
2023-05-10T02:42:17.668Z,14.80
2023-05-10T02:44:46.318Z,13.60
2023-05-10T02:47:15.637Z,13.00
2023-05-10T02:49:43.288Z,11.90
2023-05-10T02:52:10.281Z,11.50
2023-05-10T02:54:44.454Z,10.10
2023-05-10T02:57:15.240Z,12.40
2023-05-10T02:59:43.367Z,15.20
2023-05-10T03:02:10.202Z,12.70
2023-05-10T03:04:37.390Z,13.80
2023-05-10T03:07:04.504Z,14.20
2023-05-10T03:09:32.510Z,11.00
2023-05-10T03:12:16.117Z,11.90
2023-05-10T03:14:49.094Z,13.00
2023-05-10T03:17:20.237Z,10.30
2023-05-10T03:19:54.831Z,8.30
2023-05-10T03:22:29.061Z,9.20
2023-05-10T03:24:58.073Z,7.40
2023-05-10T03:27:26.964Z,8.70
2023-05-10T03:29:55.129Z,7.30
2023-05-10T03:32:22.582Z,7.70
2023-05-10T03:34:49.539Z,7.20
2023-05-10T03:37:16.578Z,7.90
2023-05-10T03:39:43.421Z,7.80
2023-05-10T03:42:12.312Z,7.20
2023-05-10T03:47:06.725Z,6.70
2023-05-10T03:49:33.729Z,7.80
2023-05-10T03:52:00.513Z,9.10
2023-05-10T03:54:27.648Z,8.10
2023-05-10T03:56:54.459Z,7.90
2023-05-10T03:59:21.640Z,8.10
2023-05-10T04:01:48.877Z,7.40
2023-05-10T04:04:16.094Z,7.10
2023-05-10T04:06:43.129Z,8.00
2023-05-10T04:09:10.016Z,6.70
2023-05-10T04:11:36.795Z,7.20
2023-05-10T04:14:03.613Z,8.50
2023-05-10T04:16:30.473Z,6.80
2023-05-10T04:18:57.860Z,7.80
2023-05-10T04:21:25.008Z,9.80
2023-05-10T04:23:51.888Z,8.60
2023-05-10T04:26:18.596Z,9.90
2023-05-10T04:28:45.715Z,12.20
2023-05-10T04:31:12.691Z,10.10
2023-05-10T04:33:39.598Z,9.70
2023-05-10T04:36:06.496Z,8.50
2023-05-10T04:38:33.433Z,9.70
2023-05-10T04:41:09.381Z,11.20
2023-05-10T04:43:36.504Z,11.10
2023-05-10T04:46:03.855Z,10.10
2023-05-10T04:48:30.932Z,8.00
2023-05-10T04:50:57.706Z,7.50
2023-05-10T04:53:24.360Z,5.60
2023-05-10T04:55:51.261Z,6.20
2023-05-10T04:58:18.101Z,4.80
2023-05-10T05:00:44.817Z,4.10
2023-05-10T05:03:11.725Z,4.80
2023-05-10T05:05:38.766Z,5.00
2023-05-10T05:08:05.696Z,4.10
2023-05-10T05:10:32.473Z,5.60
2023-05-10T05:12:59.346Z,6.30
2023-05-10T05:15:26.861Z,4.80
2023-05-10T05:17:53.962Z,5.50
2023-05-10T05:20:20.852Z,4.70
2023-05-10T05:22:47.816Z,3.00
2023-05-10T05:25:15.580Z,4.00
2023-05-10T05:27:42.673Z,4.30
2023-05-10T05:30:10.149Z,3.60
2023-05-10T05:32:37.113Z,3.80
2023-05-10T05:35:04.793Z,3.40
2023-05-10T05:37:31.758Z,5.20
2023-05-10T05:39:58.803Z,4.00
2023-05-10T05:42:26.453Z,3.40
2023-05-10T05:45:58.498Z,3.20
2023-05-10T05:48:25.577Z,3.70
2023-05-10T05:50:56.957Z,3.20
2023-05-10T05:53:23.883Z,3.10
2023-05-10T05:55:54.689Z,3.50
2023-05-10T05:58:22.617Z,4.30
2023-05-10T06:00:49.576Z,3.50
2023-05-10T06:03:16.655Z,4.20
2023-05-10T06:05:44.038Z,3.60
2023-05-10T06:08:10.791Z,3.60
2023-05-10T06:10:39.451Z,3.10
2023-05-10T06:13:06.652Z,3.10
2023-05-10T06:15:33.731Z,2.90
2023-05-10T06:18:00.904Z,2.90
2023-05-10T06:20:27.840Z,2.70
2023-05-10T06:22:54.934Z,3.30
2023-05-10T06:25:21.643Z,3.30
2023-05-10T06:27:52.725Z,3.10
2023-05-10T06:30:23.417Z,4.90
2023-05-10T06:32:50.430Z,3.50
2023-05-10T06:35:17.582Z,4.00
2023-05-10T06:37:44.725Z,5.00
2023-05-10T06:40:12.349Z,3.00
2023-05-10T06:45:07.462Z,2.80
2023-05-10T06:50:06.401Z,2.90
2023-05-10T06:52:33.748Z,3.40
2023-05-10T06:55:00.815Z,3.10
2023-05-10T06:57:31.808Z,2.90
2023-05-10T06:59:59.447Z,2.90
2023-05-10T07:02:26.904Z,2.90
2023-05-10T07:04:54.600Z,3.60
2023-05-10T07:07:21.523Z,2.80
2023-05-10T07:09:49.388Z,2.90
2023-05-10T07:12:16.267Z,2.40
2023-05-10T07:14:43.199Z,3.20
2023-05-10T07:17:10.387Z,3.50
2023-05-10T07:19:37.209Z,3.10
2023-05-10T07:22:04.871Z,3.90
2023-05-10T07:24:33.597Z,2.70
2023-05-10T07:27:00.429Z,3.00
2023-05-10T07:29:27.203Z,5.80
2023-05-10T07:31:55.347Z,6.50
2023-05-10T07:34:23.251Z,9.10
2023-05-10T07:36:50.021Z,4.00
2023-05-10T07:39:24.822Z,4.20
2023-05-10T07:41:55.264Z,4.20
2023-05-10T07:44:22.252Z,3.40
2023-05-10T07:46:49.983Z,2.80
2023-05-10T07:49:16.804Z,3.30
2023-05-10T07:51:43.788Z,3.10
2023-05-10T07:54:10.710Z,2.60
2023-05-10T07:56:37.510Z,2.70
2023-05-10T07:59:05.589Z,3.20
2023-05-10T08:01:33.557Z,3.20
2023-05-10T08:04:00.565Z,3.50
2023-05-10T08:06:28.517Z,3.60
2023-05-10T08:08:55.965Z,6.00
2023-05-10T08:11:22.815Z,5.40
2023-05-10T08:13:50.420Z,3.50
2023-05-10T08:16:17.681Z,3.60
2023-05-10T08:18:45.549Z,4.20
2023-05-10T08:21:12.535Z,5.70
2023-05-10T08:23:39.301Z,3.90
2023-05-10T08:26:06.090Z,11.50
2023-05-10T08:28:33.103Z,3.90
2023-05-10T08:30:59.867Z,3.50
2023-05-10T08:33:26.748Z,3.60
2023-05-10T08:35:53.477Z,2.70
2023-05-10T08:38:20.226Z,3.30
2023-05-10T08:40:47.171Z,3.00
2023-05-10T08:43:16.919Z,3.00
2023-05-10T08:45:45.767Z,3.00
2023-05-10T08:48:12.899Z,3.50
2023-05-10T08:50:40.724Z,2.80
2023-05-10T08:53:13.472Z,3.00
2023-05-10T08:55:43.089Z,3.00
2023-05-10T08:58:10.404Z,11.20
2023-05-10T09:00:38.218Z,58.30
2023-05-10T09:03:06.000Z,10.90
2023-05-10T09:05:33.111Z,3.40
2023-05-10T09:08:02.491Z,2.70
2023-05-10T09:10:29.837Z,2.50
2023-05-10T09:12:58.605Z,2.70
2023-05-10T09:15:26.442Z,2.90
2023-05-10T09:17:53.583Z,2.90
2023-05-10T09:20:21.572Z,2.60
2023-05-10T09:22:49.111Z,2.60
2023-05-10T09:25:16.731Z,2.40
2023-05-10T09:27:47.773Z,2.90
2023-05-10T09:30:28.146Z,2.60
2023-05-10T09:32:55.653Z,2.80
2023-05-10T09:35:25.914Z,2.30
2023-05-10T09:37:56.460Z,4.10
2023-05-10T09:40:28.040Z,4.30
2023-05-10T09:43:02.840Z,3.50
2023-05-10T09:45:39.109Z,3.60
2023-05-10T09:48:11.151Z,8.80
2023-05-10T09:50:39.237Z,2.70
2023-05-10T09:53:05.984Z,3.10
2023-05-10T09:55:40.164Z,3.90
2023-05-10T09:58:15.724Z,4.70
2023-05-10T10:00:48.122Z,3.80
2023-05-10T10:03:16.608Z,3.10
2023-05-10T10:05:44.180Z,2.50
2023-05-10T10:08:12.250Z,3.80
2023-05-10T10:10:40.757Z,3.40
2023-05-10T10:15:34.902Z,3.50
2023-05-10T10:18:01.830Z,2.70
2023-05-10T10:20:28.940Z,2.70
2023-05-10T10:22:55.762Z,3.50
2023-05-10T10:25:22.841Z,3.80
2023-05-10T10:27:52.715Z,3.50
2023-05-10T10:30:20.244Z,4.40
2023-05-10T10:33:27.874Z,3.30
2023-05-10T10:35:56.294Z,4.00
2023-05-10T10:38:23.265Z,2.70
2023-05-10T10:41:01.944Z,2.90
2023-05-10T10:43:29.107Z,2.60
2023-05-10T10:46:17.802Z,2.50
2023-05-10T10:48:48.866Z,3.30
2023-05-10T10:51:15.687Z,3.40
2023-05-10T10:53:42.953Z,6.60
2023-05-10T10:56:11.218Z,8.40
2023-05-10T10:58:38.585Z,3.50
2023-05-10T11:01:18.066Z,6.10
2023-05-10T11:04:03.139Z,6.80
2023-05-10T11:06:33.826Z,14.00
2023-05-10T11:09:18.604Z,4.90
2023-05-10T11:11:52.691Z,3.60
2023-05-10T11:14:23.012Z,3.90
2023-05-10T11:16:50.158Z,4.40
2023-05-10T11:19:18.149Z,3.40
2023-05-10T11:21:52.231Z,5.10
2023-05-10T11:24:22.183Z,3.60
2023-05-10T11:26:52.509Z,3.30
2023-05-10T11:29:20.477Z,2.40
2023-05-10T11:31:47.970Z,2.40
2023-05-10T11:34:24.323Z,5.60
2023-05-10T11:36:52.389Z,15.50
2023-05-10T11:39:19.111Z,5.20
2023-05-10T11:41:48.616Z,5.20
2023-05-10T11:44:15.540Z,6.80
2023-05-10T11:46:42.346Z,3.40
2023-05-10T11:49:09.167Z,15.80
2023-05-10T11:51:36.806Z,3.80
2023-05-10T11:54:08.928Z,2.40
2023-05-10T11:56:40.199Z,3.30
2023-05-10T11:59:07.102Z,2.70
2023-05-10T12:01:34.006Z,4.60
2023-05-10T12:04:01.252Z,8.20
2023-05-10T12:06:31.385Z,3.90
2023-05-10T12:08:58.329Z,2.50
2023-05-10T12:11:26.258Z,4.50
2023-05-10T12:13:53.530Z,3.20
2023-05-10T12:16:23.153Z,6.20
2023-05-10T12:18:53.801Z,3.00
2023-05-10T12:21:21.148Z,3.10
2023-05-10T12:23:50.429Z,3.40
2023-05-10T12:26:17.436Z,2.20
2023-05-10T12:28:44.705Z,8.60
2023-05-10T12:31:11.536Z,8.90
2023-05-10T12:33:43.056Z,4.40
2023-05-10T12:36:14.098Z,13.60
2023-05-10T12:38:48.146Z,16.70
2023-05-10T12:41:18.745Z,2.60
2023-05-10T12:43:48.459Z,16.80
2023-05-10T12:46:17.042Z,11.90
2023-05-10T12:48:44.508Z,7.90
2023-05-10T12:51:13.483Z,2.90
2023-05-10T12:53:41.760Z,4.00
2023-05-10T12:56:11.189Z,3.00
2023-05-10T12:58:38.772Z,2.50
2023-05-10T13:01:05.881Z,3.30
2023-05-10T13:03:33.095Z,2.70
2023-05-10T13:06:00.284Z,3.00
2023-05-10T13:08:28.152Z,3.80
2023-05-10T13:10:55.355Z,3.10
2023-05-10T13:13:23.022Z,2.30
2023-05-10T13:15:50.063Z,2.30
2023-05-10T13:18:16.862Z,2.40
2023-05-10T13:20:44.720Z,3.50
2023-05-10T13:23:11.490Z,5.90
2023-05-10T13:25:38.383Z,9.20
2023-05-10T13:28:05.307Z,6.20
2023-05-10T13:30:32.338Z,3.80
2023-05-10T13:32:59.184Z,2.80
2023-05-10T13:35:26.046Z,2.40
2023-05-10T13:37:53.863Z,5.00
2023-05-10T13:40:20.833Z,3.50
2023-05-10T13:42:47.662Z,3.00
2023-05-10T13:45:14.743Z,8.10
2023-05-10T13:47:42.021Z,6.00
2023-05-10T13:50:08.981Z,2.70
2023-05-10T13:52:35.987Z,3.60
2023-05-10T13:55:03.274Z,3.90
2023-05-10T13:57:30.861Z,7.80
2023-05-10T13:59:58.022Z,6.60
2023-05-10T14:02:25.092Z,4.10
2023-05-10T14:04:52.194Z,7.30
2023-05-10T14:07:19.583Z,5.40
2023-05-10T14:09:46.493Z,6.70
2023-05-10T14:12:14.958Z,9.90
2023-05-10T14:14:41.740Z,5.40
2023-05-10T14:17:10.751Z,6.70
2023-05-10T14:19:40.147Z,4.70
2023-05-10T14:22:07.288Z,11.10
2023-05-10T14:24:34.280Z,6.90
2023-05-10T14:27:01.084Z,10.00
2023-05-10T14:29:27.902Z,4.70
2023-05-10T14:31:54.729Z,6.10
2023-05-10T14:34:21.618Z,5.80
2023-05-10T14:36:49.429Z,6.40
2023-05-10T14:39:16.935Z,3.70
2023-05-10T14:41:44.994Z,3.20
2023-05-10T14:46:39.908Z,7.00
2023-05-10T14:49:06.869Z,6.50
2023-05-10T14:51:33.732Z,3.70
2023-05-10T14:54:01.041Z,3.70
2023-05-10T14:56:28.394Z,7.00
2023-05-10T14:58:55.946Z,6.70
2023-05-10T15:01:23.543Z,9.40
2023-05-10T15:03:51.248Z,9.40
2023-05-10T15:06:27.390Z,7.10
2023-05-10T15:08:54.197Z,5.50
2023-05-10T15:11:21.020Z,5.00
2023-05-10T15:13:47.985Z,4.40
2023-05-10T15:16:14.995Z,5.10
2023-05-10T15:18:41.978Z,4.50
2023-05-10T15:21:09.383Z,5.70
2023-05-10T15:23:36.452Z,5.50
2023-05-10T15:26:03.203Z,5.80
2023-05-10T15:28:31.476Z,4.10
2023-05-10T15:31:00.811Z,6.70
2023-05-10T15:35:54.822Z,6.40
2023-05-10T15:38:21.981Z,4.20
2023-05-10T15:40:48.705Z,4.30
2023-05-10T15:43:15.729Z,4.80
2023-05-10T15:45:42.819Z,5.00
2023-05-10T15:48:09.562Z,4.80
2023-05-10T15:50:36.384Z,5.00
2023-05-10T15:53:03.124Z,5.90
2023-05-10T15:55:30.067Z,3.90
2023-05-10T15:57:56.960Z,3.80
2023-05-10T16:00:23.807Z,3.50
2023-05-10T16:02:53.181Z,5.20
2023-05-10T16:05:20.287Z,4.00
2023-05-10T16:07:47.386Z,4.10
2023-05-10T16:10:14.321Z,4.90
2023-05-10T16:12:41.146Z,4.30
2023-05-10T16:15:08.539Z,4.80
2023-05-10T16:17:36.783Z,6.50
2023-05-10T16:20:04.942Z,7.70
2023-05-10T16:22:32.007Z,7.00
2023-05-10T16:24:58.739Z,6.10
2023-05-10T16:27:28.065Z,6.40
2023-05-10T16:29:54.864Z,5.40
2023-05-10T16:32:21.766Z,6.60
2023-05-10T16:34:49.598Z,10.10
2023-05-10T16:37:16.402Z,10.20
2023-05-10T16:39:43.319Z,8.10
2023-05-10T16:42:10.114Z,6.10
2023-05-10T16:44:37.106Z,6.60
2023-05-10T16:47:03.899Z,6.40
2023-05-10T16:49:31.094Z,7.30
2023-05-10T16:51:57.890Z,7.10
2023-05-10T16:54:25.236Z,8.20
2023-05-10T16:56:52.117Z,12.00
2023-05-10T16:59:18.932Z,8.20
2023-05-10T17:01:46.444Z,10.00
2023-05-10T17:04:13.835Z,26.40
2023-05-10T17:06:40.905Z,13.50
2023-05-10T17:09:07.772Z,13.70
2023-05-10T17:11:35.849Z,12.20
2023-05-10T17:14:02.913Z,12.00
2023-05-10T17:16:29.942Z,11.50
2023-05-10T17:18:56.938Z,12.00
2023-05-10T17:21:23.893Z,11.90
2023-05-10T17:23:50.810Z,13.50
2023-05-10T17:26:17.693Z,13.50
2023-05-10T17:28:44.454Z,12.00
2023-05-10T17:31:12.226Z,12.70
2023-05-10T17:33:39.088Z,12.80
2023-05-10T17:36:06.170Z,9.50
2023-05-10T17:38:33.482Z,7.80
2023-05-10T17:41:00.234Z,10.30
2023-05-10T17:43:27.063Z,13.50
2023-05-10T17:45:53.881Z,14.40
2023-05-10T17:48:21.388Z,17.30
2023-05-10T17:50:51.220Z,14.70
2023-05-10T17:53:19.089Z,12.60
2023-05-10T17:55:46.443Z,12.70
2023-05-10T17:58:13.375Z,13.20
2023-05-10T18:00:40.063Z,15.20
2023-05-10T18:03:06.835Z,16.00
2023-05-10T18:05:38.240Z,14.70
2023-05-10T18:08:05.326Z,14.20
2023-05-10T18:10:32.800Z,49.90
2023-05-10T18:13:01.833Z,25.90
2023-05-10T18:15:28.941Z,15.30
2023-05-10T18:17:56.330Z,13.60
2023-05-10T18:20:23.160Z,12.30
2023-05-10T18:22:50.118Z,12.30
2023-05-10T18:25:17.422Z,13.10
2023-05-10T18:27:44.527Z,14.30
2023-05-10T18:30:12.653Z,16.20
2023-05-10T18:32:40.338Z,15.30
2023-05-10T18:35:07.632Z,13.50
2023-05-10T18:37:34.996Z,14.30
2023-05-10T18:40:02.057Z,13.40
2023-05-10T18:42:28.987Z,14.30
2023-05-10T18:44:55.782Z,14.10
2023-05-10T18:47:22.676Z,13.10
2023-05-10T18:49:49.971Z,17.00
2023-05-10T18:52:16.790Z,15.70
2023-05-10T18:54:43.789Z,22.20
2023-05-10T18:57:11.837Z,15.40
2023-05-10T18:59:38.694Z,14.40
2023-05-10T19:02:05.568Z,14.10
2023-05-10T19:04:33.776Z,12.80
2023-05-10T19:07:01.578Z,15.20
2023-05-10T19:09:28.686Z,19.10
2023-05-10T19:11:56.155Z,18.60
2023-05-10T19:14:24.759Z,22.20
2023-05-10T19:16:53.734Z,21.10
2023-05-10T19:19:20.579Z,23.10
2023-05-10T19:21:47.784Z,24.30
2023-05-10T19:24:14.728Z,27.40
2023-05-10T19:26:41.631Z,33.50
2023-05-10T19:29:08.993Z,33.60
2023-05-10T19:31:36.189Z,32.70
2023-05-10T19:34:03.227Z,34.40
2023-05-10T19:36:30.789Z,28.80
2023-05-10T19:38:57.565Z,35.60
2023-05-10T19:41:24.360Z,40.50
2023-05-10T19:43:52.073Z,48.30
2023-05-10T19:46:20.251Z,60.70
2023-05-10T19:48:51.457Z,61.30
2023-05-10T19:51:18.227Z,57.60
2023-05-10T19:53:45.165Z,56.40
2023-05-10T19:56:12.517Z,42.90
2023-05-10T19:58:39.456Z,56.60
2023-05-10T20:01:07.112Z,64.00
2023-05-10T20:03:35.180Z,75.40
2023-05-10T20:06:02.011Z,51.70
2023-05-10T20:08:29.161Z,68.40
2023-05-10T20:10:58.331Z,59.20
2023-05-10T20:13:25.351Z,55.30
2023-05-10T20:15:56.346Z,54.20
2023-05-10T20:18:23.266Z,49.70
2023-05-10T20:20:57.811Z,48.60
2023-05-10T20:23:24.772Z,49.60
2023-05-10T20:25:51.636Z,47.30
2023-05-10T20:28:20.841Z,52.80
2023-05-10T20:30:47.722Z,52.20
2023-05-10T20:33:15.335Z,57.00
2023-05-10T20:35:42.244Z,40.70
2023-05-10T20:38:08.942Z,40.80
2023-05-10T20:40:36.448Z,31.20
2023-05-10T20:43:04.708Z,39.10
2023-05-10T20:45:32.077Z,42.50
2023-05-10T20:47:59.000Z,48.80
2023-05-10T20:50:25.896Z,49.50
2023-05-10T20:52:52.820Z,37.00
2023-05-10T20:55:19.994Z,36.50
2023-05-10T20:57:46.843Z,50.30
2023-05-10T21:00:14.190Z,47.90
2023-05-10T21:02:43.025Z,47.60
2023-05-10T21:07:38.376Z,39.20
2023-05-10T21:10:07.339Z,39.00
2023-05-10T21:12:34.234Z,46.70
2023-05-10T21:15:01.048Z,37.40
2023-05-10T21:17:28.255Z,44.90
2023-05-10T21:19:55.215Z,50.10
2023-05-10T21:22:22.031Z,70.80
2023-05-10T21:24:48.723Z,66.20
2023-05-10T21:27:15.508Z,42.60
2023-05-10T21:29:42.289Z,50.40
2023-05-10T21:32:09.113Z,41.50
2023-05-10T21:34:36.214Z,48.60
2023-05-10T21:37:02.921Z,49.40
2023-05-10T21:39:29.739Z,48.10
2023-05-10T21:41:56.852Z,45.50
2023-05-10T21:44:23.693Z,45.60
2023-05-10T21:46:50.411Z,50.00
2023-05-10T21:49:17.239Z,57.40
2023-05-10T21:51:43.966Z,80.10
2023-05-10T21:54:10.773Z,61.40
2023-05-10T21:56:37.550Z,58.10
2023-05-10T21:59:04.774Z,64.30
2023-05-10T22:01:31.987Z,67.90
2023-05-10T22:03:58.837Z,61.80
2023-05-10T22:06:25.732Z,64.60
2023-05-10T22:08:52.717Z,78.00
2023-05-10T22:11:19.586Z,70.50
2023-05-10T22:13:46.293Z,64.00
2023-05-10T22:16:13.160Z,65.80
2023-05-10T22:18:40.316Z,65.00
2023-05-10T22:21:08.760Z,66.30
2023-05-10T22:23:36.648Z,63.90
2023-05-10T22:26:03.505Z,47.80
2023-05-10T22:28:30.423Z,47.70
2023-05-10T22:30:57.187Z,48.40
2023-05-10T22:33:24.085Z,52.60
2023-05-10T22:35:50.826Z,43.00
2023-05-10T22:38:17.793Z,41.00
2023-05-10T22:40:44.915Z,39.00
2023-05-10T22:43:11.728Z,37.40
2023-05-10T22:45:38.773Z,40.80
2023-05-10T22:48:05.776Z,46.00
2023-05-10T22:50:33.142Z,42.70
2023-05-10T22:52:59.869Z,55.40
2023-05-10T22:55:26.614Z,108.70
2023-05-10T22:57:53.638Z,91.20
2023-05-10T23:00:20.715Z,93.10
2023-05-10T23:02:47.798Z,90.20
2023-05-10T23:05:15.350Z,87.60
2023-05-10T23:07:43.251Z,95.10
2023-05-10T23:10:10.268Z,98.60
2023-05-10T23:12:38.041Z,69.80
2023-05-10T23:15:05.550Z,56.40
2023-05-10T23:17:32.534Z,62.40
2023-05-10T23:19:59.268Z,53.80
2023-05-10T23:22:26.259Z,53.80
2023-05-10T23:24:52.993Z,53.20
2023-05-10T23:27:19.750Z,50.20
2023-05-10T23:29:46.552Z,38.30
2023-05-10T23:32:13.470Z,47.70
2023-05-10T23:34:40.789Z,49.40
2023-05-10T23:37:07.659Z,71.30
2023-05-10T23:39:34.433Z,73.20
2023-05-10T23:42:01.281Z,72.30
2023-05-10T23:44:28.137Z,76.20
2023-05-10T23:46:55.003Z,69.20
2023-05-10T23:49:21.844Z,71.80
2023-05-10T23:51:48.641Z,56.50
2023-05-10T23:54:15.634Z,52.00
2023-05-10T23:56:42.637Z,44.90
2023-05-10T23:59:09.529Z,49.60
